sensor_id;sensor_type;location;lat;lon;timestamp;P1;durP1;ratioP1;P2;durP2;ratioP2
31390;SDS011;18022;45.492;11.548;2022-12-07T00:03:38;56.08;;;13.88;;
31390;SDS011;18022;45.492;11.548;2022-12-07T00:06:06;18.38;;;13.43;;
31390;SDS011;18022;45.492;11.548;2022-12-07T00:08:33;22.33;;;13.40;;
31390;SDS011;18022;45.492;11.548;2022-12-07T00:11:00;18.30;;;13.23;;
31390;SDS011;18022;45.492;11.548;2022-12-07T00:13:27;32.58;;;13.40;;
31390;SDS011;18022;45.492;11.548;2022-12-07T00:15:53;27.65;;;14.90;;
31390;SDS011;18022;45.492;11.548;2022-12-07T00:18:18;36.92;;;14.85;;
31390;SDS011;18022;45.492;11.548;2022-12-07T00:20:44;39.72;;;14.77;;
31390;SDS011;18022;45.492;11.548;2022-12-07T00:23:10;19.48;;;14.20;;
31390;SDS011;18022;45.492;11.548;2022-12-07T00:25:35;18.35;;;12.95;;
31390;SDS011;18022;45.492;11.548;2022-12-07T00:28:01;26.25;;;13.05;;
31390;SDS011;18022;45.492;11.548;2022-12-07T00:30:27;77.07;;;14.15;;
31390;SDS011;18022;45.492;11.548;2022-12-07T00:32:52;70.28;;;14.43;;
31390;SDS011;18022;45.492;11.548;2022-12-07T00:35:18;35.80;;;13.63;;
31390;SDS011;18022;45.492;11.548;2022-12-07T00:37:44;20.77;;;12.38;;
31390;SDS011;18022;45.492;11.548;2022-12-07T00:40:09;16.10;;;12.75;;
31390;SDS011;18022;45.492;11.548;2022-12-07T00:42:35;16.83;;;12.93;;
31390;SDS011;18022;45.492;11.548;2022-12-07T00:45:01;17.83;;;12.60;;
31390;SDS011;18022;45.492;11.548;2022-12-07T00:47:27;29.38;;;13.10;;
31390;SDS011;18022;45.492;11.548;2022-12-07T00:49:52;18.48;;;13.75;;
31390;SDS011;18022;45.492;11.548;2022-12-07T00:52:18;51.30;;;14.20;;
31390;SDS011;18022;45.492;11.548;2022-12-07T00:54:44;25.63;;;12.57;;
31390;SDS011;18022;45.492;11.548;2022-12-07T00:57:09;17.33;;;12.95;;
31390;SDS011;18022;45.492;11.548;2022-12-07T00:59:35;21.50;;;13.23;;
31390;SDS011;18022;45.492;11.548;2022-12-07T01:02:01;18.73;;;12.75;;
31390;SDS011;18022;45.492;11.548;2022-12-07T01:04:26;23.15;;;12.82;;
31390;SDS011;18022;45.492;11.548;2022-12-07T01:06:52;27.10;;;13.73;;
31390;SDS011;18022;45.492;11.548;2022-12-07T01:09:18;33.45;;;15.10;;
31390;SDS011;18022;45.492;11.548;2022-12-07T01:11:43;23.15;;;15.60;;
31390;SDS011;18022;45.492;11.548;2022-12-07T01:14:09;22.35;;;14.88;;
31390;SDS011;18022;45.492;11.548;2022-12-07T01:16:35;26.85;;;13.55;;
31390;SDS011;18022;45.492;11.548;2022-12-07T01:19:03;24.25;;;14.00;;
31390;SDS011;18022;45.492;11.548;2022-12-07T01:21:31;21.73;;;13.18;;
31390;SDS011;18022;45.492;11.548;2022-12-07T01:24:03;26.25;;;12.68;;
31390;SDS011;18022;45.492;11.548;2022-12-07T01:26:30;18.60;;;13.30;;
31390;SDS011;18022;45.492;11.548;2022-12-07T01:28:56;60.33;;;13.80;;
31390;SDS011;18022;45.492;11.548;2022-12-07T01:31:24;74.57;;;12.40;;
31390;SDS011;18022;45.492;11.548;2022-12-07T01:33:52;34.90;;;11.10;;
31390;SDS011;18022;45.492;11.548;2022-12-07T01:36:20;18.70;;;11.27;;
31390;SDS011;18022;45.492;11.548;2022-12-07T01:38:50;43.40;;;11.25;;
31390;SDS011;18022;45.492;11.548;2022-12-07T01:41:18;24.15;;;11.65;;
31390;SDS011;18022;45.492;11.548;2022-12-07T01:46:33;14.57;;;11.73;;
31390;SDS011;18022;45.492;11.548;2022-12-07T01:48:58;13.07;;;10.93;;
31390;SDS011;18022;45.492;11.548;2022-12-07T01:51:24;30.63;;;10.98;;
31390;SDS011;18022;45.492;11.548;2022-12-07T01:53:51;12.45;;;10.35;;
31390;SDS011;18022;45.492;11.548;2022-12-07T01:56:19;12.07;;;10.10;;
31390;SDS011;18022;45.492;11.548;2022-12-07T01:58:47;12.50;;;10.18;;
31390;SDS011;18022;45.492;11.548;2022-12-07T02:01:14;11.30;;;10.10;;
31390;SDS011;18022;45.492;11.548;2022-12-07T02:03:41;11.82;;;9.57;;
31390;SDS011;18022;45.492;11.548;2022-12-07T02:08:34;10.70;;;9.60;;
31390;SDS011;18022;45.492;11.548;2022-12-07T02:11:01;37.03;;;10.55;;
31390;SDS011;18022;45.492;11.548;2022-12-07T02:13:29;15.82;;;10.20;;
31390;SDS011;18022;45.492;11.548;2022-12-07T02:21:09;11.50;;;10.30;;
31390;SDS011;18022;45.492;11.548;2022-12-07T02:29:45;12.73;;;10.10;;
31390;SDS011;18022;45.492;11.548;2022-12-07T02:32:43;12.57;;;10.98;;
31390;SDS011;18022;45.492;11.548;2022-12-07T02:35:23;13.23;;;10.98;;
31390;SDS011;18022;45.492;11.548;2022-12-07T02:40:29;13.50;;;11.75;;
31390;SDS011;18022;45.492;11.548;2022-12-07T02:45:52;10.55;;;9.45;;
31390;SDS011;18022;45.492;11.548;2022-12-07T02:51:06;10.50;;;9.43;;
31390;SDS011;18022;45.492;11.548;2022-12-07T02:58:42;11.15;;;9.45;;
31390;SDS011;18022;45.492;11.548;2022-12-07T03:01:35;10.63;;;9.52;;
31390;SDS011;18022;45.492;11.548;2022-12-07T03:04:14;11.80;;;9.85;;
31390;SDS011;18022;45.492;11.548;2022-12-07T03:06:42;10.18;;;9.15;;
31390;SDS011;18022;45.492;11.548;2022-12-07T03:09:15;11.43;;;9.85;;
31390;SDS011;18022;45.492;11.548;2022-12-07T03:11:50;10.90;;;8.85;;
31390;SDS011;18022;45.492;11.548;2022-12-07T03:14:23;11.15;;;9.43;;
31390;SDS011;18022;45.492;11.548;2022-12-07T03:17:00;10.15;;;8.88;;
31390;SDS011;18022;45.492;11.548;2022-12-07T03:19:51;8.77;;;7.88;;
31390;SDS011;18022;45.492;11.548;2022-12-07T03:22:20;9.07;;;8.18;;
31390;SDS011;18022;45.492;11.548;2022-12-07T03:24:49;9.65;;;8.65;;
31390;SDS011;18022;45.492;11.548;2022-12-07T03:27:21;9.52;;;8.13;;
31390;SDS011;18022;45.492;11.548;2022-12-07T03:29:49;9.80;;;8.32;;
31390;SDS011;18022;45.492;11.548;2022-12-07T03:37:29;10.93;;;8.35;;
31390;SDS011;18022;45.492;11.548;2022-12-07T03:40:03;11.15;;;8.80;;
31390;SDS011;18022;45.492;11.548;2022-12-07T03:42:49;10.43;;;8.45;;
31390;SDS011;18022;45.492;11.548;2022-12-07T03:45:16;10.37;;;8.00;;
31390;SDS011;18022;45.492;11.548;2022-12-07T03:47:46;10.00;;;7.88;;
31390;SDS011;18022;45.492;11.548;2022-12-07T03:52:53;10.27;;;8.07;;
31390;SDS011;18022;45.492;11.548;2022-12-07T03:55:30;11.57;;;8.05;;
31390;SDS011;18022;45.492;11.548;2022-12-07T03:58:00;13.18;;;8.55;;
31390;SDS011;18022;45.492;11.548;2022-12-07T04:00:28;9.93;;;8.50;;
31390;SDS011;18022;45.492;11.548;2022-12-07T04:02:55;9.00;;;7.90;;
31390;SDS011;18022;45.492;11.548;2022-12-07T04:05:21;9.73;;;8.38;;
31390;SDS011;18022;45.492;11.548;2022-12-07T04:07:47;10.68;;;8.73;;
31390;SDS011;18022;45.492;11.548;2022-12-07T04:10:13;9.82;;;8.07;;
31390;SDS011;18022;45.492;11.548;2022-12-07T04:12:39;12.98;;;8.02;;
31390;SDS011;18022;45.492;11.548;2022-12-07T04:15:05;12.80;;;8.45;;
31390;SDS011;18022;45.492;11.548;2022-12-07T04:17:31;10.90;;;8.63;;
31390;SDS011;18022;45.492;11.548;2022-12-07T04:19:57;9.68;;;7.95;;
31390;SDS011;18022;45.492;11.548;2022-12-07T04:22:23;10.77;;;8.38;;
31390;SDS011;18022;45.492;11.548;2022-12-07T04:24:48;8.57;;;7.68;;
31390;SDS011;18022;45.492;11.548;2022-12-07T04:27:14;9.25;;;7.85;;
31390;SDS011;18022;45.492;11.548;2022-12-07T04:29:40;10.70;;;8.90;;
31390;SDS011;18022;45.492;11.548;2022-12-07T04:32:05;9.50;;;8.52;;
31390;SDS011;18022;45.492;11.548;2022-12-07T04:34:31;10.35;;;9.00;;
31390;SDS011;18022;45.492;11.548;2022-12-07T04:36:57;9.70;;;8.70;;
31390;SDS011;18022;45.492;11.548;2022-12-07T04:41:56;12.48;;;8.98;;
31390;SDS011;18022;45.492;11.548;2022-12-07T04:44:22;10.65;;;8.23;;
31390;SDS011;18022;45.492;11.548;2022-12-07T04:46:50;8.77;;;7.27;;
31390;SDS011;18022;45.492;11.548;2022-12-07T04:49:16;8.05;;;7.25;;
31390;SDS011;18022;45.492;11.548;2022-12-07T04:51:42;7.70;;;6.75;;
31390;SDS011;18022;45.492;11.548;2022-12-07T04:54:08;9.98;;;8.27;;
31390;SDS011;18022;45.492;11.548;2022-12-07T04:56:34;8.65;;;7.63;;
31390;SDS011;18022;45.492;11.548;2022-12-07T04:59:00;10.20;;;7.45;;
31390;SDS011;18022;45.492;11.548;2022-12-07T05:01:26;8.40;;;7.32;;
31390;SDS011;18022;45.492;11.548;2022-12-07T05:03:52;10.05;;;7.68;;
31390;SDS011;18022;45.492;11.548;2022-12-07T05:06:18;12.20;;;7.30;;
31390;SDS011;18022;45.492;11.548;2022-12-07T05:08:44;11.13;;;7.57;;
31390;SDS011;18022;45.492;11.548;2022-12-07T05:11:10;11.32;;;8.10;;
31390;SDS011;18022;45.492;11.548;2022-12-07T05:13:59;10.32;;;7.55;;
31390;SDS011;18022;45.492;11.548;2022-12-07T05:16:25;9.10;;;7.15;;
31390;SDS011;18022;45.492;11.548;2022-12-07T05:18:51;10.43;;;7.57;;
31390;SDS011;18022;45.492;11.548;2022-12-07T05:21:17;9.23;;;7.57;;
31390;SDS011;18022;45.492;11.548;2022-12-07T05:23:42;12.23;;;7.78;;
31390;SDS011;18022;45.492;11.548;2022-12-07T05:26:08;10.10;;;7.80;;
31390;SDS011;18022;45.492;11.548;2022-12-07T05:28:34;10.60;;;7.93;;
31390;SDS011;18022;45.492;11.548;2022-12-07T05:30:59;10.40;;;7.57;;
31390;SDS011;18022;45.492;11.548;2022-12-07T05:33:25;8.93;;;7.38;;
31390;SDS011;18022;45.492;11.548;2022-12-07T05:35:51;9.75;;;7.10;;
31390;SDS011;18022;45.492;11.548;2022-12-07T05:38:17;8.93;;;7.18;;
31390;SDS011;18022;45.492;11.548;2022-12-07T05:40:42;8.95;;;7.65;;
31390;SDS011;18022;45.492;11.548;2022-12-07T05:43:08;8.40;;;7.30;;
31390;SDS011;18022;45.492;11.548;2022-12-07T05:45:34;9.10;;;7.38;;
31390;SDS011;18022;45.492;11.548;2022-12-07T05:47:59;9.35;;;7.78;;
31390;SDS011;18022;45.492;11.548;2022-12-07T05:50:25;9.05;;;7.20;;
31390;SDS011;18022;45.492;11.548;2022-12-07T05:52:51;9.18;;;7.70;;
31390;SDS011;18022;45.492;11.548;2022-12-07T05:55:16;9.18;;;7.82;;
31390;SDS011;18022;45.492;11.548;2022-12-07T05:57:42;10.75;;;7.57;;
31390;SDS011;18022;45.492;11.548;2022-12-07T06:00:28;9.60;;;7.97;;
31390;SDS011;18022;45.492;11.548;2022-12-07T06:02:54;12.35;;;10.05;;
31390;SDS011;18022;45.492;11.548;2022-12-07T06:05:19;10.35;;;8.65;;
31390;SDS011;18022;45.492;11.548;2022-12-07T06:07:45;13.00;;;9.32;;
31390;SDS011;18022;45.492;11.548;2022-12-07T06:10:11;14.02;;;9.18;;
31390;SDS011;18022;45.492;11.548;2022-12-07T06:12:36;11.30;;;8.57;;
31390;SDS011;18022;45.492;11.548;2022-12-07T06:15:04;8.52;;;6.95;;
31390;SDS011;18022;45.492;11.548;2022-12-07T06:17:30;6.80;;;6.10;;
31390;SDS011;18022;45.492;11.548;2022-12-07T06:19:56;9.68;;;7.40;;
31390;SDS011;18022;45.492;11.548;2022-12-07T06:22:22;8.80;;;7.60;;
31390;SDS011;18022;45.492;11.548;2022-12-07T06:24:48;10.55;;;8.05;;
31390;SDS011;18022;45.492;11.548;2022-12-07T06:27:13;9.60;;;7.55;;
31390;SDS011;18022;45.492;11.548;2022-12-07T06:29:39;9.20;;;7.72;;
31390;SDS011;18022;45.492;11.548;2022-12-07T06:32:05;10.25;;;8.43;;
31390;SDS011;18022;45.492;11.548;2022-12-07T06:34:31;12.40;;;8.23;;
31390;SDS011;18022;45.492;11.548;2022-12-07T06:36:57;28.00;;;8.63;;
31390;SDS011;18022;45.492;11.548;2022-12-07T06:39:23;9.57;;;7.65;;
31390;SDS011;18022;45.492;11.548;2022-12-07T06:41:51;69.43;;;9.40;;
31390;SDS011;18022;45.492;11.548;2022-12-07T06:44:17;15.88;;;11.20;;
31390;SDS011;18022;45.492;11.548;2022-12-07T06:46:43;14.18;;;9.57;;
31390;SDS011;18022;45.492;11.548;2022-12-07T06:49:09;12.40;;;9.60;;
31390;SDS011;18022;45.492;11.548;2022-12-07T06:51:35;13.77;;;9.73;;
31390;SDS011;18022;45.492;11.548;2022-12-07T06:54:02;14.57;;;9.48;;
31390;SDS011;18022;45.492;11.548;2022-12-07T06:56:29;11.98;;;8.77;;
31390;SDS011;18022;45.492;11.548;2022-12-07T06:58:54;10.80;;;7.93;;
31390;SDS011;18022;45.492;11.548;2022-12-07T07:01:20;13.50;;;9.43;;
31390;SDS011;18022;45.492;11.548;2022-12-07T07:03:46;12.65;;;7.40;;
31390;SDS011;18022;45.492;11.548;2022-12-07T07:06:12;11.77;;;8.52;;
31390;SDS011;18022;45.492;11.548;2022-12-07T07:08:38;15.25;;;9.43;;
31390;SDS011;18022;45.492;11.548;2022-12-07T07:11:04;26.92;;;10.63;;
31390;SDS011;18022;45.492;11.548;2022-12-07T07:13:31;19.98;;;11.40;;
31390;SDS011;18022;45.492;11.548;2022-12-07T07:15:57;23.33;;;10.65;;
31390;SDS011;18022;45.492;11.548;2022-12-07T07:18:23;19.15;;;10.43;;
31390;SDS011;18022;45.492;11.548;2022-12-07T07:20:50;16.15;;;10.32;;
31390;SDS011;18022;45.492;11.548;2022-12-07T07:23:16;42.20;;;11.23;;
31390;SDS011;18022;45.492;11.548;2022-12-07T07:25:42;26.70;;;11.57;;
31390;SDS011;18022;45.492;11.548;2022-12-07T07:28:08;32.47;;;10.93;;
31390;SDS011;18022;45.492;11.548;2022-12-07T07:30:34;30.73;;;11.02;;
31390;SDS011;18022;45.492;11.548;2022-12-07T07:33:00;19.20;;;10.15;;
31390;SDS011;18022;45.492;11.548;2022-12-07T07:35:27;17.55;;;10.07;;
31390;SDS011;18022;45.492;11.548;2022-12-07T07:37:54;32.20;;;10.63;;
31390;SDS011;18022;45.492;11.548;2022-12-07T07:40:20;38.00;;;9.70;;
31390;SDS011;18022;45.492;11.548;2022-12-07T07:42:47;15.80;;;9.88;;
31390;SDS011;18022;45.492;11.548;2022-12-07T07:45:13;54.55;;;10.60;;
31390;SDS011;18022;45.492;11.548;2022-12-07T07:47:39;89.05;;;10.75;;
31390;SDS011;18022;45.492;11.548;2022-12-07T07:50:05;74.07;;;11.52;;
31390;SDS011;18022;45.492;11.548;2022-12-07T07:52:31;30.23;;;10.85;;
31390;SDS011;18022;45.492;11.548;2022-12-07T07:54:57;15.10;;;10.15;;
31390;SDS011;18022;45.492;11.548;2022-12-07T07:57:23;13.50;;;10.82;;
31390;SDS011;18022;45.492;11.548;2022-12-07T07:59:48;13.00;;;10.20;;
31390;SDS011;18022;45.492;11.548;2022-12-07T08:02:15;18.58;;;10.68;;
31390;SDS011;18022;45.492;11.548;2022-12-07T08:04:43;13.20;;;9.32;;
31390;SDS011;18022;45.492;11.548;2022-12-07T08:07:10;9.50;;;8.23;;
31390;SDS011;18022;45.492;11.548;2022-12-07T08:09:37;10.30;;;8.60;;
31390;SDS011;18022;45.492;11.548;2022-12-07T08:12:03;12.40;;;9.82;;
31390;SDS011;18022;45.492;11.548;2022-12-07T08:14:29;11.20;;;9.52;;
31390;SDS011;18022;45.492;11.548;2022-12-07T08:16:55;12.02;;;9.60;;
31390;SDS011;18022;45.492;11.548;2022-12-07T08:19:21;13.63;;;9.85;;
31390;SDS011;18022;45.492;11.548;2022-12-07T08:21:47;10.23;;;8.70;;
31390;SDS011;18022;45.492;11.548;2022-12-07T08:24:13;10.70;;;8.75;;
31390;SDS011;18022;45.492;11.548;2022-12-07T08:26:39;7.82;;;6.78;;
31390;SDS011;18022;45.492;11.548;2022-12-07T08:29:05;7.95;;;6.95;;
31390;SDS011;18022;45.492;11.548;2022-12-07T08:31:31;10.30;;;8.00;;
31390;SDS011;18022;45.492;11.548;2022-12-07T08:33:57;9.88;;;8.80;;
31390;SDS011;18022;45.492;11.548;2022-12-07T08:36:23;9.05;;;8.02;;
31390;SDS011;18022;45.492;11.548;2022-12-07T08:38:48;10.15;;;8.65;;
31390;SDS011;18022;45.492;11.548;2022-12-07T08:41:15;11.43;;;8.10;;
31390;SDS011;18022;45.492;11.548;2022-12-07T08:43:41;7.93;;;7.13;;
31390;SDS011;18022;45.492;11.548;2022-12-07T08:46:16;9.23;;;7.95;;
31390;SDS011;18022;45.492;11.548;2022-12-07T08:48:50;8.55;;;7.63;;
31390;SDS011;18022;45.492;11.548;2022-12-07T08:51:21;8.07;;;7.25;;
31390;SDS011;18022;45.492;11.548;2022-12-07T08:53:48;8.77;;;7.45;;
31390;SDS011;18022;45.492;11.548;2022-12-07T08:58:41;8.82;;;7.30;;
31390;SDS011;18022;45.492;11.548;2022-12-07T09:01:08;11.02;;;8.70;;
31390;SDS011;18022;45.492;11.548;2022-12-07T09:03:34;9.90;;;8.35;;
31390;SDS011;18022;45.492;11.548;2022-12-07T09:06:00;11.43;;;8.80;;
31390;SDS011;18022;45.492;11.548;2022-12-07T09:08:26;11.10;;;8.77;;
31390;SDS011;18022;45.492;11.548;2022-12-07T09:11:06;13.45;;;8.63;;
31390;SDS011;18022;45.492;11.548;2022-12-07T09:13:32;11.43;;;8.60;;
31390;SDS011;18022;45.492;11.548;2022-12-07T09:15:57;10.85;;;8.43;;
31390;SDS011;18022;45.492;11.548;2022-12-07T09:18:23;9.90;;;8.13;;
31390;SDS011;18022;45.492;11.548;2022-12-07T09:20:49;11.43;;;8.40;;
31390;SDS011;18022;45.492;11.548;2022-12-07T09:23:15;10.30;;;8.52;;
31390;SDS011;18022;45.492;11.548;2022-12-07T09:25:41;11.00;;;8.25;;
31390;SDS011;18022;45.492;11.548;2022-12-07T09:28:07;14.30;;;9.45;;
31390;SDS011;18022;45.492;11.548;2022-12-07T09:30:33;13.27;;;9.15;;
31390;SDS011;18022;45.492;11.548;2022-12-07T09:32:59;12.18;;;8.60;;
31390;SDS011;18022;45.492;11.548;2022-12-07T09:35:25;13.48;;;8.15;;
31390;SDS011;18022;45.492;11.548;2022-12-07T09:37:51;9.38;;;7.22;;
31390;SDS011;18022;45.492;11.548;2022-12-07T09:40:18;9.60;;;7.60;;
31390;SDS011;18022;45.492;11.548;2022-12-07T09:42:47;9.48;;;7.00;;
31390;SDS011;18022;45.492;11.548;2022-12-07T09:45:23;10.43;;;7.20;;
31390;SDS011;18022;45.492;11.548;2022-12-07T09:47:52;11.43;;;7.97;;
31390;SDS011;18022;45.492;11.548;2022-12-07T09:50:23;12.15;;;8.77;;
31390;SDS011;18022;45.492;11.548;2022-12-07T09:52:50;14.57;;;10.50;;
31390;SDS011;18022;45.492;11.548;2022-12-07T09:55:26;12.63;;;9.50;;
31390;SDS011;18022;45.492;11.548;2022-12-07T09:57:53;17.83;;;13.05;;
31390;SDS011;18022;45.492;11.548;2022-12-07T10:00:20;13.70;;;10.77;;
31390;SDS011;18022;45.492;11.548;2022-12-07T10:05:27;14.70;;;11.13;;
31390;SDS011;18022;45.492;11.548;2022-12-07T10:08:03;13.93;;;10.32;;
31390;SDS011;18022;45.492;11.548;2022-12-07T10:10:30;15.60;;;11.15;;
31390;SDS011;18022;45.492;11.548;2022-12-07T10:13:07;18.08;;;11.25;;
31390;SDS011;18022;45.492;11.548;2022-12-07T10:15:53;17.95;;;11.32;;
31390;SDS011;18022;45.492;11.548;2022-12-07T10:18:33;16.33;;;11.65;;
31390;SDS011;18022;45.492;11.548;2022-12-07T10:24:02;16.85;;;11.00;;
31390;SDS011;18022;45.492;11.548;2022-12-07T10:29:34;20.90;;;13.07;;
31390;SDS011;18022;45.492;11.548;2022-12-07T10:34:33;53.03;;;27.45;;
31390;SDS011;18022;45.492;11.548;2022-12-07T10:42:09;12.77;;;9.02;;
31390;SDS011;18022;45.492;11.548;2022-12-07T10:44:45;12.05;;;8.68;;
31390;SDS011;18022;45.492;11.548;2022-12-07T11:01:16;13.25;;;8.75;;
31390;SDS011;18022;45.492;11.548;2022-12-07T11:14:53;15.32;;;10.95;;
31390;SDS011;18022;45.492;11.548;2022-12-07T11:30:36;22.25;;;14.52;;
31390;SDS011;18022;45.492;11.548;2022-12-07T11:33:28;21.08;;;12.65;;
31390;SDS011;18022;45.492;11.548;2022-12-07T11:38:44;14.35;;;9.60;;
31390;SDS011;18022;45.492;11.548;2022-12-07T11:41:15;14.32;;;9.35;;
31390;SDS011;18022;45.492;11.548;2022-12-07T11:43:54;12.48;;;8.98;;
31390;SDS011;18022;45.492;11.548;2022-12-07T11:46:29;14.88;;;8.68;;
31390;SDS011;18022;45.492;11.548;2022-12-07T11:49:19;11.38;;;7.70;;
31390;SDS011;18022;45.492;11.548;2022-12-07T11:51:59;19.40;;;13.23;;
31390;SDS011;18022;45.492;11.548;2022-12-07T11:54:34;20.58;;;14.18;;
31390;SDS011;18022;45.492;11.548;2022-12-07T11:57:07;5.63;;;3.80;;
31390;SDS011;18022;45.492;11.548;2022-12-07T11:59:39;7.60;;;5.05;;
31390;SDS011;18022;45.492;11.548;2022-12-07T12:07:20;6.50;;;4.85;;
31390;SDS011;18022;45.492;11.548;2022-12-07T12:09:52;6.45;;;4.15;;
31390;SDS011;18022;45.492;11.548;2022-12-07T12:22:43;11.65;;;9.50;;
31390;SDS011;18022;45.492;11.548;2022-12-07T12:25:34;4.30;;;2.72;;
31390;SDS011;18022;45.492;11.548;2022-12-07T12:28:22;10.52;;;6.07;;
31390;SDS011;18022;45.492;11.548;2022-12-07T12:31:05;3.92;;;2.70;;
31390;SDS011;18022;45.492;11.548;2022-12-07T12:33:58;3.15;;;2.80;;
31390;SDS011;18022;45.492;11.548;2022-12-07T12:39:08;3.03;;;2.13;;
31390;SDS011;18022;45.492;11.548;2022-12-07T12:51:49;10.43;;;8.13;;
31390;SDS011;18022;45.492;11.548;2022-12-07T12:54:24;14.18;;;6.95;;
31390;SDS011;18022;45.492;11.548;2022-12-07T12:59:56;12.52;;;8.85;;
31390;SDS011;18022;45.492;11.548;2022-12-07T13:02:30;11.27;;;7.90;;
31390;SDS011;18022;45.492;11.548;2022-12-07T13:12:59;6.15;;;4.70;;
31390;SDS011;18022;45.492;11.548;2022-12-07T13:15:35;5.13;;;4.18;;
31390;SDS011;18022;45.492;11.548;2022-12-07T13:18:25;5.70;;;4.25;;
31390;SDS011;18022;45.492;11.548;2022-12-07T13:21:02;5.15;;;4.35;;
31390;SDS011;18022;45.492;11.548;2022-12-07T13:28:40;6.32;;;4.65;;
31390;SDS011;18022;45.492;11.548;2022-12-07T13:33:47;6.68;;;4.15;;
31390;SDS011;18022;45.492;11.548;2022-12-07T13:36:23;5.53;;;3.50;;
31390;SDS011;18022;45.492;11.548;2022-12-07T13:38:57;6.13;;;4.45;;
31390;SDS011;18022;45.492;11.548;2022-12-07T13:41:27;4.93;;;3.90;;
31390;SDS011;18022;45.492;11.548;2022-12-07T13:44:13;4.93;;;3.50;;
31390;SDS011;18022;45.492;11.548;2022-12-07T13:49:20;3.55;;;3.15;;
31390;SDS011;18022;45.492;11.548;2022-12-07T13:51:54;6.30;;;5.00;;
31390;SDS011;18022;45.492;11.548;2022-12-07T13:54:31;5.30;;;4.15;;
31390;SDS011;18022;45.492;11.548;2022-12-07T13:56:57;6.55;;;4.30;;
31390;SDS011;18022;45.492;11.548;2022-12-07T13:59:24;5.20;;;4.70;;
31390;SDS011;18022;45.492;11.548;2022-12-07T14:04:19;7.40;;;5.97;;
31390;SDS011;18022;45.492;11.548;2022-12-07T14:06:54;10.93;;;5.90;;
31390;SDS011;18022;45.492;11.548;2022-12-07T14:09:24;9.45;;;6.65;;
31390;SDS011;18022;45.492;11.548;2022-12-07T14:11:53;12.93;;;9.38;;
31390;SDS011;18022;45.492;11.548;2022-12-07T14:16:57;10.82;;;7.40;;
31390;SDS011;18022;45.492;11.548;2022-12-07T14:19:42;13.90;;;8.60;;
31390;SDS011;18022;45.492;11.548;2022-12-07T14:22:08;11.27;;;8.77;;
31390;SDS011;18022;45.492;11.548;2022-12-07T14:24:44;15.48;;;10.40;;
31390;SDS011;18022;45.492;11.548;2022-12-07T14:27:16;7.47;;;5.93;;
31390;SDS011;18022;45.492;11.548;2022-12-07T14:29:43;14.18;;;9.35;;
31390;SDS011;18022;45.492;11.548;2022-12-07T14:32:31;17.85;;;12.65;;
31390;SDS011;18022;45.492;11.548;2022-12-07T14:37:23;17.33;;;10.90;;
31390;SDS011;18022;45.492;11.548;2022-12-07T14:39:49;10.77;;;8.47;;
31390;SDS011;18022;45.492;11.548;2022-12-07T14:42:15;8.43;;;6.55;;
31390;SDS011;18022;45.492;11.548;2022-12-07T14:44:41;13.20;;;9.00;;
31390;SDS011;18022;45.492;11.548;2022-12-07T14:47:11;11.52;;;7.85;;
31390;SDS011;18022;45.492;11.548;2022-12-07T14:49:37;14.35;;;10.57;;
31390;SDS011;18022;45.492;11.548;2022-12-07T14:52:03;16.05;;;11.00;;
31390;SDS011;18022;45.492;11.548;2022-12-07T14:54:31;14.68;;;10.43;;
31390;SDS011;18022;45.492;11.548;2022-12-07T14:59:23;10.70;;;7.30;;
31390;SDS011;18022;45.492;11.548;2022-12-07T15:01:49;8.65;;;6.05;;
31390;SDS011;18022;45.492;11.548;2022-12-07T15:04:15;6.85;;;4.90;;
31390;SDS011;18022;45.492;11.548;2022-12-07T15:06:41;8.35;;;5.93;;
31390;SDS011;18022;45.492;11.548;2022-12-07T15:09:11;7.65;;;5.45;;
31390;SDS011;18022;45.492;11.548;2022-12-07T15:11:37;10.82;;;6.90;;
31390;SDS011;18022;45.492;11.548;2022-12-07T15:14:02;10.27;;;7.18;;
31390;SDS011;18022;45.492;11.548;2022-12-07T15:16:37;11.38;;;7.25;;
31390;SDS011;18022;45.492;11.548;2022-12-07T15:19:14;11.32;;;8.07;;
31390;SDS011;18022;45.492;11.548;2022-12-07T15:21:41;11.23;;;8.15;;
31390;SDS011;18022;45.492;11.548;2022-12-07T15:24:08;14.73;;;8.70;;
31390;SDS011;18022;45.492;11.548;2022-12-07T15:26:35;12.68;;;8.65;;
31390;SDS011;18022;45.492;11.548;2022-12-07T15:29:01;14.02;;;9.07;;
31390;SDS011;18022;45.492;11.548;2022-12-07T15:31:28;15.07;;;9.07;;
31390;SDS011;18022;45.492;11.548;2022-12-07T15:33:53;11.65;;;9.05;;
31390;SDS011;18022;45.492;11.548;2022-12-07T15:36:20;12.15;;;9.63;;
31390;SDS011;18022;45.492;11.548;2022-12-07T15:38:48;11.45;;;8.57;;
31390;SDS011;18022;45.492;11.548;2022-12-07T15:41:14;11.98;;;8.70;;
31390;SDS011;18022;45.492;11.548;2022-12-07T15:43:40;11.95;;;9.05;;
31390;SDS011;18022;45.492;11.548;2022-12-07T15:46:31;12.13;;;9.00;;
31390;SDS011;18022;45.492;11.548;2022-12-07T15:49:01;11.45;;;9.18;;
31390;SDS011;18022;45.492;11.548;2022-12-07T15:51:27;16.33;;;8.90;;
31390;SDS011;18022;45.492;11.548;2022-12-07T15:53:53;11.80;;;8.73;;
31390;SDS011;18022;45.492;11.548;2022-12-07T15:56:19;12.63;;;8.88;;
31390;SDS011;18022;45.492;11.548;2022-12-07T15:58:45;13.38;;;8.52;;
31390;SDS011;18022;45.492;11.548;2022-12-07T16:01:15;11.93;;;8.45;;
31390;SDS011;18022;45.492;11.548;2022-12-07T16:03:43;12.35;;;9.32;;
31390;SDS011;18022;45.492;11.548;2022-12-07T16:06:10;12.13;;;8.13;;
31390;SDS011;18022;45.492;11.548;2022-12-07T16:08:37;14.25;;;9.32;;
31390;SDS011;18022;45.492;11.548;2022-12-07T16:11:10;10.25;;;8.48;;
31390;SDS011;18022;45.492;11.548;2022-12-07T16:13:36;11.77;;;8.82;;
31390;SDS011;18022;45.492;11.548;2022-12-07T16:16:07;14.93;;;10.18;;
31390;SDS011;18022;45.492;11.548;2022-12-07T16:18:37;16.25;;;9.32;;
31390;SDS011;18022;45.492;11.548;2022-12-07T16:21:03;13.20;;;9.10;;
31390;SDS011;18022;45.492;11.548;2022-12-07T16:23:29;10.52;;;8.57;;
31390;SDS011;18022;45.492;11.548;2022-12-07T16:26:03;12.50;;;9.35;;
31390;SDS011;18022;45.492;11.548;2022-12-07T16:28:32;17.52;;;9.75;;
31390;SDS011;18022;45.492;11.548;2022-12-07T16:31:05;12.60;;;9.57;;
31390;SDS011;18022;45.492;11.548;2022-12-07T16:33:36;12.40;;;9.43;;
31390;SDS011;18022;45.492;11.548;2022-12-07T16:36:03;19.00;;;9.65;;
31390;SDS011;18022;45.492;11.548;2022-12-07T16:38:31;11.80;;;9.00;;
31390;SDS011;18022;45.492;11.548;2022-12-07T16:40:57;10.18;;;7.57;;
31390;SDS011;18022;45.492;11.548;2022-12-07T16:43:23;9.65;;;6.32;;
31390;SDS011;18022;45.492;11.548;2022-12-07T16:45:49;9.77;;;6.97;;
31390;SDS011;18022;45.492;11.548;2022-12-07T16:48:15;7.10;;;5.93;;
31390;SDS011;18022;45.492;11.548;2022-12-07T16:50:42;10.35;;;6.22;;
31390;SDS011;18022;45.492;11.548;2022-12-07T16:53:13;8.30;;;6.68;;
31390;SDS011;18022;45.492;11.548;2022-12-07T16:55:41;9.35;;;8.13;;
31390;SDS011;18022;45.492;11.548;2022-12-07T16:58:09;16.05;;;8.48;;
31390;SDS011;18022;45.492;11.548;2022-12-07T17:00:36;13.32;;;8.85;;
31390;SDS011;18022;45.492;11.548;2022-12-07T17:03:02;15.68;;;9.65;;
31390;SDS011;18022;45.492;11.548;2022-12-07T17:05:28;13.63;;;9.38;;
31390;SDS011;18022;45.492;11.548;2022-12-07T17:07:55;12.68;;;10.18;;
31390;SDS011;18022;45.492;11.548;2022-12-07T17:10:21;14.60;;;9.88;;
31390;SDS011;18022;45.492;11.548;2022-12-07T17:12:48;14.00;;;10.45;;